createdAt,value
2023-04-24T00:00:27.912Z,0.70
2023-04-24T00:02:58.103Z,0.68
2023-04-24T00:05:26.064Z,0.60
2023-04-24T00:07:56.353Z,0.55
2023-04-24T00:10:23.201Z,0.43
2023-04-24T00:12:50.175Z,0.75
2023-04-24T00:15:16.988Z,0.70
2023-04-24T00:17:43.950Z,0.70
2023-04-24T00:20:11.797Z,0.60
2023-04-24T00:22:41.828Z,0.55
2023-04-24T00:25:10.086Z,0.60
2023-04-24T00:27:38.083Z,0.50
2023-04-24T00:30:05.829Z,0.40
2023-04-24T00:32:32.628Z,0.40
2023-04-24T00:34:59.457Z,0.45
2023-04-24T00:37:26.364Z,0.60
2023-04-24T00:39:53.325Z,0.50
2023-04-24T00:42:20.525Z,0.50
2023-04-24T00:44:47.394Z,0.50
2023-04-24T00:47:15.590Z,0.50
2023-04-24T00:49:42.679Z,0.50
2023-04-24T00:52:09.938Z,1.38
2023-04-24T00:54:37.143Z,0.40
2023-04-24T00:57:04.601Z,0.40
2023-04-24T00:59:32.059Z,0.40
2023-04-24T01:02:01.259Z,0.30
2023-04-24T01:04:28.517Z,0.35
2023-04-24T01:06:56.973Z,0.60
2023-04-24T01:09:25.646Z,0.40
2023-04-24T01:11:52.443Z,0.60
2023-04-24T01:14:19.275Z,0.50
2023-04-24T01:16:46.278Z,0.60
2023-04-24T01:19:13.923Z,0.68
2023-04-24T01:21:43.084Z,0.45
2023-04-24T01:24:09.904Z,0.60
2023-04-24T01:26:36.970Z,0.43
2023-04-24T01:29:03.948Z,0.60
2023-04-24T01:31:31.752Z,0.43
2023-04-24T01:33:58.650Z,0.60
2023-04-24T01:36:28.993Z,0.50
2023-04-24T01:38:56.049Z,0.60
2023-04-24T01:41:23.366Z,0.73
2023-04-24T01:43:52.531Z,0.68
2023-04-24T01:46:26.460Z,0.77
2023-04-24T01:48:53.511Z,0.55
2023-04-24T01:51:20.752Z,0.85
2023-04-24T01:53:54.866Z,0.68
2023-04-24T01:56:26.195Z,0.75
2023-04-24T01:58:54.713Z,0.68
2023-04-24T02:01:22.393Z,0.95
2023-04-24T02:03:49.312Z,1.15
2023-04-24T02:06:16.251Z,1.02
2023-04-24T02:08:43.499Z,0.88
2023-04-24T02:11:11.039Z,1.23
2023-04-24T02:13:37.934Z,1.02
2023-04-24T02:16:04.892Z,1.00
2023-04-24T02:18:31.658Z,1.15
2023-04-24T02:20:58.423Z,1.10
2023-04-24T02:23:25.406Z,0.93
2023-04-24T02:25:54.337Z,1.25
2023-04-24T02:28:21.325Z,0.93
2023-04-24T02:30:48.187Z,1.13
2023-04-24T02:33:15.084Z,1.20
2023-04-24T02:35:42.324Z,1.05
2023-04-24T02:38:09.132Z,1.30
2023-04-24T02:40:36.813Z,1.10
2023-04-24T02:43:06.576Z,1.40
2023-04-24T02:45:35.698Z,1.80
2023-04-24T02:48:02.535Z,1.30
2023-04-24T02:50:30.049Z,1.13
2023-04-24T02:52:57.142Z,1.40
2023-04-24T02:55:27.332Z,1.25
2023-04-24T02:57:54.542Z,1.20
2023-04-24T03:00:24.296Z,1.42
2023-04-24T03:02:51.604Z,1.08
2023-04-24T03:05:18.914Z,1.58
2023-04-24T03:07:46.514Z,1.15
2023-04-24T03:10:13.507Z,1.40
2023-04-24T03:12:43.009Z,1.48
2023-04-24T03:15:10.329Z,1.73
2023-04-24T03:17:44.120Z,1.73
2023-04-24T03:20:11.174Z,2.08
2023-04-24T03:22:38.336Z,1.83
2023-04-24T03:25:10.137Z,1.70
2023-04-24T03:27:38.323Z,1.70
2023-04-24T03:30:15.295Z,1.40
2023-04-24T03:32:51.322Z,1.52
2023-04-24T03:35:32.553Z,1.45
2023-04-24T03:38:05.263Z,1.88
2023-04-24T03:40:50.883Z,1.70
2023-04-24T03:43:39.499Z,1.73
2023-04-24T03:46:09.472Z,1.40
2023-04-24T03:48:40.837Z,1.30
2023-04-24T03:51:09.393Z,1.48
2023-04-24T03:53:38.476Z,1.30
2023-04-24T03:56:05.951Z,1.23
2023-04-24T03:58:33.927Z,1.30
2023-04-24T04:01:01.096Z,1.42
2023-04-24T04:03:54.203Z,1.30
2023-04-24T04:06:24.370Z,1.50
2023-04-24T04:08:55.826Z,1.17
2023-04-24T04:11:22.576Z,1.00
2023-04-24T04:13:49.670Z,1.05
2023-04-24T04:16:19.821Z,1.02
2023-04-24T04:18:49.981Z,1.52
2023-04-24T04:21:17.086Z,1.13
2023-04-24T04:23:47.379Z,1.45
2023-04-24T04:26:20.192Z,1.65
2023-04-24T04:29:01.684Z,1.13
2023-04-24T04:31:29.320Z,1.30
2023-04-24T04:33:57.672Z,2.15
2023-04-24T04:36:25.031Z,2.22
2023-04-24T04:39:00.370Z,2.38
2023-04-24T04:41:49.869Z,2.75
2023-04-24T04:44:18.430Z,2.38
2023-04-24T04:46:46.318Z,2.30
2023-04-24T04:49:31.974Z,2.75
2023-04-24T04:51:58.985Z,2.50
2023-04-24T04:54:27.242Z,3.33
2023-04-24T04:56:54.960Z,3.05
2023-04-24T04:59:22.151Z,3.00
2023-04-24T05:01:53.114Z,2.70
2023-04-24T05:04:21.359Z,3.22
2023-04-24T05:06:52.437Z,3.35
2023-04-24T05:09:21.127Z,2.67
2023-04-24T05:11:52.871Z,2.65
2023-04-24T05:14:20.022Z,3.03
2023-04-24T05:16:47.032Z,2.90
2023-04-24T05:19:15.966Z,3.03
2023-04-24T05:21:47.053Z,2.75
2023-04-24T05:24:14.125Z,3.00
2023-04-24T05:27:00.497Z,2.92
2023-04-24T05:29:34.635Z,3.10
2023-04-24T05:32:01.982Z,2.53
2023-04-24T05:34:31.109Z,2.50
2023-04-24T05:36:58.559Z,2.72
2023-04-24T05:39:26.233Z,2.22
2023-04-24T05:41:54.407Z,2.30
2023-04-24T05:44:21.276Z,2.00
2023-04-24T05:46:48.994Z,1.92
2023-04-24T05:49:16.735Z,2.15
2023-04-24T05:51:43.664Z,2.00
2023-04-24T05:54:13.189Z,1.77
2023-04-24T05:56:43.038Z,1.70
2023-04-24T05:59:12.468Z,1.70
2023-04-24T06:01:39.261Z,1.25
2023-04-24T06:04:14.977Z,1.35
2023-04-24T06:06:42.212Z,1.55
2023-04-24T06:09:09.603Z,1.58
2023-04-24T06:11:36.556Z,1.58
2023-04-24T06:14:03.934Z,1.58
2023-04-24T06:16:56.076Z,1.70
2023-04-24T06:19:33.571Z,1.42
2023-04-24T06:22:00.399Z,1.75
2023-04-24T06:24:30.489Z,1.40
2023-04-24T06:27:02.530Z,1.48
2023-04-24T06:29:29.609Z,1.50
2023-04-24T06:31:56.430Z,1.83
2023-04-24T06:34:23.256Z,1.90
2023-04-24T06:36:50.355Z,1.88
2023-04-24T06:39:17.541Z,1.65
2023-04-24T06:41:44.508Z,1.75
2023-04-24T06:44:19.768Z,1.33
2023-04-24T06:46:46.626Z,1.00
2023-04-24T06:49:13.545Z,0.93
2023-04-24T06:51:40.641Z,0.93
2023-04-24T06:54:07.592Z,0.77
2023-04-24T06:56:35.356Z,1.00
2023-04-24T06:59:02.343Z,1.30
2023-04-24T07:01:29.198Z,0.70
2023-04-24T07:03:56.334Z,4.85
2023-04-24T07:06:25.295Z,0.90
2023-04-24T07:08:52.168Z,1.80
2023-04-24T07:11:19.205Z,0.90
2023-04-24T07:13:46.206Z,1.15
2023-04-24T07:16:13.221Z,1.00
2023-04-24T07:18:40.927Z,1.13
2023-04-24T07:21:08.299Z,1.33
2023-04-24T07:23:35.251Z,1.30
2023-04-24T07:26:02.001Z,1.33
2023-04-24T07:28:31.990Z,1.30
2023-04-24T07:30:59.905Z,1.33
2023-04-24T07:33:27.638Z,1.20
2023-04-24T07:35:54.696Z,1.20
2023-04-24T07:38:32.593Z,1.38
2023-04-24T07:40:59.415Z,1.40
2023-04-24T07:43:26.203Z,1.25
2023-04-24T07:45:53.236Z,1.70
2023-04-24T07:48:22.518Z,1.30
2023-04-24T07:50:49.485Z,1.40
2023-04-24T07:53:16.304Z,1.58
2023-04-24T07:55:43.076Z,1.73
2023-04-24T07:58:10.281Z,1.50
2023-04-24T08:00:37.675Z,1.65
2023-04-24T08:03:05.253Z,1.45
2023-04-24T08:05:32.285Z,1.73
2023-04-24T08:07:59.719Z,1.60
2023-04-24T08:10:31.039Z,1.70
2023-04-24T08:12:57.775Z,1.65
2023-04-24T08:15:24.566Z,1.52
2023-04-24T08:17:51.733Z,1.40
2023-04-24T08:20:18.527Z,0.77
2023-04-24T08:22:45.707Z,1.02
2023-04-24T08:25:12.981Z,1.30
2023-04-24T08:27:39.979Z,1.23
2023-04-24T08:30:07.800Z,1.48
2023-04-24T08:32:34.703Z,1.30
2023-04-24T08:35:01.669Z,1.60
2023-04-24T08:37:34.441Z,1.23
2023-04-24T08:40:02.353Z,1.70
2023-04-24T08:42:30.468Z,1.48
2023-04-24T08:44:58.970Z,1.67
2023-04-24T08:47:27.778Z,1.40
2023-04-24T08:49:56.675Z,1.88
2023-04-24T08:52:26.268Z,1.70
2023-04-24T08:54:54.780Z,1.80
2023-04-24T08:57:22.426Z,1.42
2023-04-24T08:59:49.983Z,1.42
2023-04-24T09:02:18.376Z,1.90
2023-04-24T09:04:46.969Z,2.55
2023-04-24T09:07:15.323Z,2.28
2023-04-24T09:09:43.321Z,2.00
2023-04-24T09:12:11.466Z,1.90
2023-04-24T09:14:45.904Z,1.92
2023-04-24T09:17:13.394Z,2.10
2023-04-24T09:19:41.786Z,2.17
2023-04-24T09:22:10.220Z,2.22
2023-04-24T09:24:37.467Z,2.13
2023-04-24T09:27:05.207Z,2.38
2023-04-24T09:29:33.902Z,2.60
2023-04-24T09:32:18.637Z,2.45
2023-04-24T09:34:52.003Z,2.55
2023-04-24T09:37:31.431Z,2.17
2023-04-24T09:40:19.967Z,2.15
2023-04-24T09:42:53.629Z,2.40
2023-04-24T09:45:21.597Z,2.60
2023-04-24T09:47:53.225Z,1.75
2023-04-24T09:50:22.281Z,2.20
2023-04-24T09:53:02.213Z,2.08
2023-04-24T09:55:30.241Z,1.75
2023-04-24T09:58:01.821Z,1.50
2023-04-24T10:00:33.962Z,1.70
2023-04-24T10:03:07.466Z,1.60
2023-04-24T10:05:36.742Z,1.60
2023-04-24T10:08:08.819Z,1.65
2023-04-24T10:10:43.333Z,1.40
2023-04-24T10:13:11.628Z,1.77
2023-04-24T10:15:39.874Z,1.52
2023-04-24T10:18:10.068Z,1.48
2023-04-24T10:20:40.114Z,1.35
2023-04-24T10:23:08.125Z,1.75
2023-04-24T10:25:52.044Z,1.60
2023-04-24T10:28:20.583Z,1.98
2023-04-24T10:30:55.955Z,1.48
2023-04-24T10:33:27.036Z,1.60
2023-04-24T10:35:54.927Z,1.27
2023-04-24T10:38:28.092Z,1.45
2023-04-24T10:41:20.636Z,1.70
2023-04-24T10:43:49.601Z,1.30
2023-04-24T10:46:22.815Z,1.45
2023-04-24T10:48:55.855Z,1.40
2023-04-24T10:51:45.281Z,1.23
2023-04-24T10:54:36.736Z,1.05
2023-04-24T10:57:23.092Z,1.08
2023-04-24T11:00:10.594Z,1.08
2023-04-24T11:02:39.665Z,0.80
2023-04-24T11:05:16.039Z,1.05
2023-04-24T11:08:24.914Z,1.25
2023-04-24T11:11:03.648Z,1.02
2023-04-24T11:13:55.827Z,1.20
2023-04-24T11:16:27.092Z,1.00
2023-04-24T11:19:04.365Z,1.02
2023-04-24T11:21:45.773Z,1.20
2023-04-24T11:24:36.613Z,0.65
2023-04-24T11:27:07.833Z,0.80
2023-04-24T11:29:55.449Z,0.80
2023-04-24T11:32:28.056Z,1.30
2023-04-24T11:34:59.384Z,0.63
2023-04-24T11:37:37.866Z,0.60
2023-04-24T11:40:07.529Z,0.60
2023-04-24T11:42:42.096Z,0.60
2023-04-24T11:45:12.617Z,0.70
2023-04-24T11:47:40.366Z,0.70
2023-04-24T11:50:10.807Z,0.50
2023-04-24T11:52:45.262Z,0.57
2023-04-24T11:55:18.436Z,0.70
2023-04-24T11:57:52.028Z,0.70
2023-04-24T12:00:22.233Z,0.57
2023-04-24T12:02:50.573Z,0.40
2023-04-24T12:05:28.886Z,0.43
2023-04-24T12:07:58.839Z,0.50
2023-04-24T12:10:27.622Z,0.80
2023-04-24T12:12:56.590Z,0.75
2023-04-24T12:15:24.167Z,0.50
2023-04-24T12:17:55.621Z,0.70
2023-04-24T12:20:31.200Z,0.85
2023-04-24T12:23:02.694Z,3.10
2023-04-24T12:25:35.977Z,0.60
2023-04-24T12:28:06.160Z,0.98
2023-04-24T12:30:35.424Z,1.48
2023-04-24T12:33:03.739Z,1.10
2023-04-24T12:35:34.411Z,0.85
2023-04-24T12:38:25.604Z,1.05
2023-04-24T12:41:07.020Z,0.60
2023-04-24T12:43:38.412Z,0.75
2023-04-24T12:46:19.330Z,0.90
2023-04-24T12:48:53.777Z,0.75
2023-04-24T12:51:20.787Z,0.80
2023-04-24T12:53:52.577Z,0.70
2023-04-24T12:56:28.813Z,0.95
2023-04-24T12:58:56.057Z,0.77
2023-04-24T13:01:23.463Z,0.80
2023-04-24T13:03:57.119Z,1.42
2023-04-24T13:06:33.765Z,0.73
2023-04-24T13:09:24.554Z,1.02
2023-04-24T13:11:51.793Z,0.80
2023-04-24T13:14:21.963Z,1.10
2023-04-24T13:16:55.337Z,1.10
2023-04-24T13:19:24.976Z,1.10
2023-04-24T13:21:51.887Z,1.02
2023-04-24T13:24:26.683Z,1.02
2023-04-24T13:26:54.072Z,0.95
2023-04-24T13:29:22.154Z,1.00
2023-04-24T13:31:52.656Z,0.95
2023-04-24T13:34:20.458Z,1.00
2023-04-24T13:36:55.229Z,1.13
2023-04-24T13:39:26.167Z,0.80
2023-04-24T13:41:56.329Z,0.88
2023-04-24T13:44:24.731Z,0.90
2023-04-24T13:46:57.672Z,0.80
2023-04-24T13:49:26.635Z,1.17
2023-04-24T13:51:57.736Z,1.08
2023-04-24T13:54:33.502Z,0.98
2023-04-24T13:57:02.300Z,0.95
2023-04-24T13:59:29.875Z,1.13
2023-04-24T14:01:57.313Z,1.17
2023-04-24T14:04:25.562Z,1.10
2023-04-24T14:07:09.049Z,0.90
2023-04-24T14:09:36.579Z,1.00
2023-04-24T14:12:18.006Z,0.98
2023-04-24T14:14:57.898Z,0.98
2023-04-24T14:17:39.850Z,1.00
2023-04-24T14:20:16.045Z,0.93
2023-04-24T14:22:43.200Z,1.08
2023-04-24T14:25:10.898Z,1.00
2023-04-24T14:27:38.545Z,0.90
2023-04-24T14:30:09.020Z,1.08
2023-04-24T14:32:36.652Z,1.00
2023-04-24T14:35:03.874Z,0.80
2023-04-24T14:37:31.269Z,0.73
2023-04-24T14:40:14.747Z,1.20
2023-04-24T14:42:45.383Z,1.15
2023-04-24T14:45:12.297Z,1.05
2023-04-24T14:47:39.173Z,1.00
2023-04-24T14:50:07.560Z,1.00
2023-04-24T14:52:39.272Z,0.85
2023-04-24T14:55:08.048Z,1.00
2023-04-24T14:57:36.929Z,0.90
2023-04-24T15:00:09.265Z,1.08
2023-04-24T15:02:38.692Z,1.08
2023-04-24T15:05:07.866Z,2.00
2023-04-24T15:07:36.767Z,1.25
2023-04-24T15:10:04.548Z,1.10
2023-04-24T15:12:31.949Z,1.85
2023-04-24T15:15:00.384Z,0.90
2023-04-24T15:17:27.775Z,1.48
2023-04-24T15:19:55.052Z,0.95
2023-04-24T15:22:21.943Z,1.48
2023-04-24T15:24:49.038Z,2.30
2023-04-24T15:27:15.921Z,2.50
2023-04-24T15:29:43.182Z,1.27
2023-04-24T15:32:11.603Z,1.10
2023-04-24T15:34:38.582Z,3.08
2023-04-24T15:37:05.719Z,1.38
2023-04-24T15:39:33.054Z,2.45
2023-04-24T15:42:04.716Z,2.80
2023-04-24T15:44:31.801Z,3.55
2023-04-24T15:47:03.207Z,4.32
2023-04-24T15:49:32.058Z,3.72
2023-04-24T15:51:58.829Z,2.42
2023-04-24T15:54:25.864Z,2.47
2023-04-24T15:56:52.760Z,2.42
2023-04-24T15:59:19.682Z,3.13
2023-04-24T16:01:50.786Z,3.40
2023-04-24T16:04:18.163Z,3.13
2023-04-24T16:06:45.103Z,20.50
2023-04-24T16:09:13.468Z,3.20
2023-04-24T16:11:40.315Z,3.42
2023-04-24T16:14:10.612Z,3.55
2023-04-24T16:16:38.115Z,8.20
2023-04-24T16:19:07.071Z,3.03
2023-04-24T16:21:33.997Z,3.92
2023-04-24T16:24:01.115Z,3.28
2023-04-24T16:26:29.566Z,3.35
2023-04-24T16:28:56.329Z,2.05
2023-04-24T16:31:23.260Z,2.40
2023-04-24T16:33:50.070Z,2.40
2023-04-24T16:36:17.003Z,3.40
2023-04-24T16:38:44.028Z,1.75
2023-04-24T16:41:11.486Z,2.25
2023-04-24T16:43:38.427Z,2.13
2023-04-24T16:46:05.454Z,1.67
2023-04-24T16:48:33.835Z,2.40
2023-04-24T16:51:00.818Z,2.13
2023-04-24T16:53:28.237Z,2.10
2023-04-24T16:55:55.082Z,2.00
2023-04-24T16:58:21.925Z,1.85
2023-04-24T17:00:48.943Z,2.10
2023-04-24T17:03:15.859Z,3.08
2023-04-24T17:05:44.173Z,3.10
2023-04-24T17:08:13.985Z,3.20
2023-04-24T17:10:41.265Z,1.83
2023-04-24T17:13:08.874Z,2.40
2023-04-24T17:15:35.987Z,2.80
2023-04-24T17:18:03.283Z,3.83
2023-04-24T17:20:30.451Z,4.28
2023-04-24T17:22:57.372Z,4.13
2023-04-24T17:25:24.153Z,3.50
2023-04-24T17:27:51.114Z,6.03
2023-04-24T17:30:18.079Z,5.15
2023-04-24T17:32:44.993Z,4.20
2023-04-24T17:35:12.199Z,3.60
2023-04-24T17:37:39.170Z,2.80
2023-04-24T17:40:07.075Z,2.67
2023-04-24T17:42:33.899Z,2.42
2023-04-24T17:45:00.826Z,2.85
2023-04-24T17:47:30.545Z,3.05
2023-04-24T17:49:57.357Z,2.95
2023-04-24T17:52:25.572Z,6.95
2023-04-24T17:54:52.458Z,4.35
2023-04-24T17:57:19.263Z,3.67
2023-04-24T17:59:46.665Z,5.55
2023-04-24T18:02:13.733Z,3.53
2023-04-24T18:04:43.279Z,3.53
2023-04-24T18:07:10.349Z,3.75
2023-04-24T18:09:37.287Z,5.65
2023-04-24T18:12:07.660Z,3.30
2023-04-24T18:14:34.420Z,3.50
2023-04-24T18:17:01.267Z,3.38
2023-04-24T18:19:27.970Z,4.13
2023-04-24T18:21:54.775Z,4.50
2023-04-24T18:24:22.802Z,5.38
2023-04-24T18:26:49.712Z,3.90
2023-04-24T18:29:16.565Z,4.28
2023-04-24T18:31:43.755Z,2.70
2023-04-24T18:34:10.579Z,2.90
2023-04-24T18:36:37.610Z,3.08
2023-04-24T18:39:05.213Z,3.60
2023-04-24T18:41:32.267Z,4.97
2023-04-24T18:43:59.408Z,3.75
2023-04-24T18:46:26.387Z,3.58
2023-04-24T18:48:53.523Z,4.43
2023-04-24T18:51:20.315Z,4.30
2023-04-24T18:53:47.109Z,3.42
2023-04-24T18:56:17.040Z,4.25
2023-04-24T18:58:46.243Z,6.75
2023-04-24T19:01:13.311Z,5.60
2023-04-24T19:03:43.229Z,5.47
2023-04-24T19:06:10.169Z,3.42
2023-04-24T19:08:38.695Z,3.50
2023-04-24T19:11:07.059Z,3.50
2023-04-24T19:13:34.006Z,3.35
2023-04-24T19:16:00.901Z,3.83
2023-04-24T19:18:29.333Z,3.58
2023-04-24T19:20:56.804Z,2.85
2023-04-24T19:23:23.915Z,3.17
2023-04-24T19:25:51.178Z,3.50
2023-04-24T19:28:17.977Z,3.30
2023-04-24T19:30:44.930Z,3.38
2023-04-24T19:33:12.158Z,3.33
2023-04-24T19:35:39.654Z,3.58
2023-04-24T19:38:06.405Z,2.95
2023-04-24T19:40:36.741Z,4.05
2023-04-24T19:43:03.527Z,3.42
2023-04-24T19:45:34.422Z,2.78
2023-04-24T19:48:01.741Z,3.20
2023-04-24T19:50:28.601Z,2.90
2023-04-24T19:52:55.546Z,4.25
2023-04-24T19:55:22.312Z,4.07
2023-04-24T19:57:49.179Z,4.28
2023-04-24T20:00:16.261Z,4.18
2023-04-24T20:02:43.212Z,3.85
2023-04-24T20:05:10.469Z,3.40
2023-04-24T20:07:37.528Z,3.28
2023-04-24T20:10:04.985Z,3.63
2023-04-24T20:12:31.880Z,3.08
2023-04-24T20:14:58.957Z,3.20
2023-04-24T20:17:26.155Z,3.28
2023-04-24T20:19:53.086Z,4.35
2023-04-24T20:22:23.284Z,3.75
2023-04-24T20:24:50.670Z,3.22
2023-04-24T20:27:17.818Z,3.47
2023-04-24T20:29:44.603Z,3.28
2023-04-24T20:32:11.680Z,3.08
2023-04-24T20:34:38.464Z,3.28
2023-04-24T20:37:06.253Z,3.92
2023-04-24T20:39:33.103Z,3.42
2023-04-24T20:42:03.785Z,3.58
2023-04-24T20:44:31.025Z,2.83
2023-04-24T20:46:57.833Z,3.72
2023-04-24T20:49:24.693Z,3.78
2023-04-24T20:51:51.581Z,3.53
2023-04-24T20:54:18.382Z,3.40
2023-04-24T20:56:48.787Z,2.90
2023-04-24T21:01:50.686Z,4.75
2023-04-24T21:04:17.729Z,3.30
2023-04-24T21:06:51.391Z,4.18
2023-04-24T21:09:18.259Z,3.30
2023-04-24T21:11:45.066Z,4.15
2023-04-24T21:14:29.699Z,2.85
2023-04-24T21:16:58.442Z,2.70
2023-04-24T21:19:25.477Z,3.05
2023-04-24T21:21:55.612Z,2.60
2023-04-24T21:24:22.874Z,2.70
2023-04-24T21:26:50.082Z,2.60
2023-04-24T21:29:17.243Z,2.90
2023-04-24T21:31:44.498Z,2.92
2023-04-24T21:34:11.331Z,2.83
2023-04-24T21:36:38.226Z,2.72
2023-04-24T21:39:05.107Z,2.80
2023-04-24T21:41:32.010Z,2.95
2023-04-24T21:43:59.305Z,2.60
2023-04-24T21:46:26.732Z,3.15
2023-04-24T21:48:53.694Z,2.90
2023-04-24T21:51:20.891Z,3.25
2023-04-24T21:53:47.867Z,2.88
2023-04-24T21:56:17.743Z,2.72
2023-04-24T21:58:45.667Z,2.75
2023-04-24T22:01:24.962Z,2.65
2023-04-24T22:03:52.076Z,2.65
2023-04-24T22:06:25.748Z,2.58
2023-04-24T22:08:53.557Z,2.53
2023-04-24T22:11:26.810Z,2.83
2023-04-24T22:13:57.992Z,2.75
2023-04-24T22:16:31.162Z,2.85
2023-04-24T22:19:05.083Z,2.85
2023-04-24T22:21:32.251Z,2.80
2023-04-24T22:23:59.992Z,2.90
2023-04-24T22:26:27.053Z,3.05
2023-04-24T22:28:54.721Z,2.70
2023-04-24T22:31:22.156Z,3.22
2023-04-24T22:33:49.305Z,2.58
2023-04-24T22:36:16.257Z,3.33
2023-04-24T22:38:43.136Z,3.10
2023-04-24T22:41:09.973Z,2.90
2023-04-24T22:43:37.090Z,2.80
2023-04-24T22:46:04.650Z,2.67
2023-04-24T22:48:32.955Z,2.60
2023-04-24T22:50:59.886Z,2.92
2023-04-24T22:53:27.695Z,2.80
2023-04-24T22:55:56.769Z,2.60
2023-04-24T22:58:24.814Z,3.08
2023-04-24T23:00:52.011Z,2.30
2023-04-24T23:03:18.978Z,2.63
2023-04-24T23:05:49.195Z,2.70
2023-04-24T23:08:18.528Z,2.80
2023-04-24T23:10:46.195Z,2.63
2023-04-24T23:13:20.697Z,2.53
2023-04-24T23:15:47.453Z,2.28
2023-04-24T23:18:20.200Z,2.53
2023-04-24T23:20:47.132Z,2.88
2023-04-24T23:23:16.065Z,2.53
2023-04-24T23:25:49.081Z,3.00
2023-04-24T23:28:24.532Z,2.60
2023-04-24T23:30:51.370Z,3.10
2023-04-24T23:33:18.595Z,3.08
2023-04-24T23:35:45.496Z,3.83
2023-04-24T23:38:12.414Z,3.20
2023-04-24T23:40:39.332Z,3.33
2023-04-24T23:43:08.078Z,3.42
2023-04-24T23:45:36.895Z,3.47
2023-04-24T23:48:04.842Z,3.55
2023-04-24T23:50:32.046Z,2.88
2023-04-24T23:53:02.841Z,3.00
2023-04-24T23:55:30.234Z,3.20
2023-04-24T23:57:57.038Z,2.95
